Time;durP1;ratioP1;P1;durP2;ratioP2;P2;SDS_P1;SDS_P2;PMS_P1;PMS_P2;Temp;Humidity;BMP_temperature;BMP_pressure;BME280_temperature;BME280_humidity;BME280_pressure;Samples;Min_cycle;Max_cycle;Signal;HPM_P1;HPM_P2
2022/03/16 00:01:07;;;;;;;20.43;13.90;;;;;;;7.20;100.00;99293.47;5068480;28;20216;-53
2022/03/16 00:03:34;;;;;;;20.83;13.70;;;;;;;7.14;100.00;99297.34;5062006;28;20194;-51
2022/03/16 00:06:01;;;;;;;23.70;13.10;;;;;;;7.14;100.00;99299.94;5065293;28;20748;-53
2022/03/16 00:08:29;;;;;;;21.00;11.63;;;;;;;7.13;100.00;99298.28;5068578;28;20557;-53
2022/03/16 00:10:56;;;;;;;18.80;10.90;;;;;;;7.11;100.00;99294.97;5067073;28;20215;-52
2022/03/16 00:13:23;;;;;;;18.23;10.73;;;;;;;7.10;100.00;99301.13;5068400;28;20727;-49
2022/03/16 00:15:50;;;;;;;16.43;10.20;;;;;;;7.08;100.00;99297.81;5068244;28;20315;-52
2022/03/16 00:18:19;;;;;;;15.00;9.53;;;;;;;7.06;100.00;99303.09;5068581;28;20544;-50
2022/03/16 00:20:47;;;;;;;13.73;8.50;;;;;;;7.01;100.00;99301.78;5068497;28;20207;-52
2022/03/16 00:23:14;;;;;;;15.50;9.20;;;;;;;6.98;100.00;99310.59;5067976;28;20192;-51
2022/03/16 00:25:42;;;;;;;18.80;9.47;;;;;;;6.99;100.00;99306.25;5068046;28;20181;-52
2022/03/16 00:28:09;;;;;;;13.83;9.37;;;;;;;6.97;100.00;99311.53;5067960;28;20242;-52
2022/03/16 00:30:36;;;;;;;19.70;10.50;;;;;;;6.96;100.00;99317.66;5068109;28;20209;-53
2022/03/16 00:33:03;;;;;;;14.93;9.50;;;;;;;6.92;100.00;99321.44;5068017;28;20666;-52
2022/03/16 00:35:31;;;;;;;15.27;9.57;;;;;;;6.88;100.00;99310.44;5067873;28;20189;-53
2022/03/16 00:37:58;;;;;;;16.93;10.57;;;;;;;6.86;100.00;99320.13;5067861;28;20667;-49
2022/03/16 00:40:25;;;;;;;22.33;14.27;;;;;;;6.87;100.00;99313.97;5066882;28;20240;-51
2022/03/16 00:42:53;;;;;;;30.20;18.00;;;;;;;6.90;100.00;99320.72;5064666;28;20216;-52
2022/03/16 00:45:20;;;;;;;34.97;18.43;;;;;;;6.93;100.00;99310.09;5047325;28;20200;-52
2022/03/16 00:47:47;;;;;;;31.63;18.03;;;;;;;6.96;100.00;99311.66;5050166;28;20236;-53
2022/03/16 00:50:17;;;;;;;33.30;18.97;;;;;;;6.97;100.00;99316.72;5048715;28;20574;-53
2022/03/16 00:52:44;;;;;;;31.17;17.87;;;;;;;6.98;100.00;99314.97;5050362;28;20195;-50
2022/03/16 00:55:11;;;;;;;93.67;20.17;;;;;;;7.00;100.00;99313.91;5050533;28;20662;-51
2022/03/16 00:57:38;;;;;;;190.57;24.57;;;;;;;6.99;100.00;99309.66;5049329;28;20213;-51
2022/03/16 01:00:10;;;;;;;110.67;23.07;;;;;;;7.01;100.00;99317.34;5049599;28;20213;-52
2022/03/16 01:02:37;;;;;;;54.23;22.03;;;;;;;7.05;100.00;99313.59;5049234;28;20747;-53
2022/03/16 01:05:07;;;;;;;64.17;21.57;;;;;;;7.08;100.00;99310.78;5050211;28;20185;-52
2022/03/16 01:07:34;;;;;;;52.07;21.63;;;;;;;7.10;100.00;99319.28;5049196;28;20599;-53
2022/03/16 01:10:01;;;;;;;97.20;23.07;;;;;;;7.12;100.00;99309.63;5049425;28;20201;-51
2022/03/16 01:12:28;;;;;;;36.30;21.10;;;;;;;7.14;100.00;99297.34;5049282;28;20283;-51
2022/03/16 01:14:55;;;;;;;75.83;22.13;;;;;;;7.16;100.00;99305.88;5048758;28;20191;-52
2022/03/16 01:17:24;;;;;;;43.73;21.50;;;;;;;7.18;100.00;99297.94;5050467;28;20650;-52
2022/03/16 01:19:51;;;;;;;67.03;23.73;;;;;;;7.19;100.00;99302.19;5050604;28;20196;-52
2022/03/16 01:22:18;;;;;;;58.63;22.30;;;;;;;7.20;100.00;99296.06;5048916;28;20264;-53
2022/03/16 01:24:45;;;;;;;41.77;22.93;;;;;;;7.21;100.00;99295.97;5053819;28;20733;-50
2022/03/16 01:27:12;;;;;;;91.90;25.27;;;;;;;7.24;100.00;99294.91;5063051;28;20296;-50
2022/03/16 01:29:39;;;;;;;75.57;25.93;;;;;;;7.24;100.00;99290.56;5072188;28;20550;-53
2022/03/16 01:32:07;;;;;;;41.37;22.97;;;;;;;7.23;100.00;99291.50;5073111;28;20208;-51
2022/03/16 01:34:36;;;;;;;38.97;24.00;;;;;;;7.24;100.00;99290.56;5071736;28;20190;-53
2022/03/16 01:37:03;;;;;;;106.33;23.40;;;;;;;7.24;100.00;99284.50;5073380;28;20655;-52
2022/03/16 01:39:32;;;;;;;113.67;23.87;;;;;;;7.27;100.00;99280.88;5073305;28;20184;-52
2022/03/16 01:41:59;;;;;;;85.33;23.03;;;;;;;7.25;100.00;99280.97;5072971;28;20207;-52
2022/03/16 01:44:47;;;;;;;37.97;20.90;;;;;;;7.25;100.00;99273.19;5072772;28;20270;-53
2022/03/16 01:47:16;;;;;;;30.47;20.07;;;;;;;7.22;100.00;99273.41;5071870;28;20802;-52
2022/03/16 01:49:45;;;;;;;30.70;20.70;;;;;;;7.21;100.00;99267.41;5073997;28;20180;-52
2022/03/16 01:52:16;;;;;;;27.90;18.40;;;;;;;7.23;100.00;99272.47;5072608;28;20199;-50
2022/03/16 01:54:43;;;;;;;30.37;19.37;;;;;;;7.24;100.00;99271.53;5071021;28;20199;-50
2022/03/16 01:57:11;;;;;;;26.23;18.57;;;;;;;7.26;100.00;99264.47;5071279;28;20189;-51
2022/03/16 01:59:39;;;;;;;26.20;18.73;;;;;;;7.27;100.00;99257.50;5063685;28;20290;-51
2022/03/16 02:02:06;;;;;;;26.60;17.87;;;;;;;7.28;100.00;99259.97;5066729;28;20212;-53
2022/03/16 02:04:34;;;;;;;17.30;12.23;;;;;;;7.32;100.00;99253.63;5070419;28;20674;-50
2022/03/16 02:07:03;;;;;;;16.87;12.27;;;;;;;7.36;100.00;99255.03;5073235;28;20598;-53
2022/03/16 02:09:30;;;;;;;19.17;12.23;;;;;;;7.35;100.00;99257.78;5072304;28;20196;-49
2022/03/16 02:11:57;;;;;;;18.10;12.50;;;;;;;7.35;100.00;99261.19;5073251;28;20213;-52
2022/03/16 02:14:24;;;;;;;19.67;12.43;;;;;;;7.38;100.00;99258.34;5073026;28;20196;-52
2022/03/16 02:16:52;;;;;;;21.27;14.57;;;;;;;7.39;100.00;99270.41;5073469;28;20659;-52
2022/03/16 02:19:18;;;;;;;36.17;20.47;;;;;;;7.41;100.00;99269.47;5071151;28;20684;-52
2022/03/16 02:21:49;;;;;;;42.20;22.77;;;;;;;7.39;100.00;99269.59;5068906;28;20209;-50
2022/03/16 02:24:17;;;;;;;46.23;24.60;;;;;;;7.38;100.00;99276.53;5072517;28;20377;-52
2022/03/16 02:26:43;;;;;;;84.67;25.87;;;;;;;7.35;100.00;99273.34;5068296;28;20178;-51
2022/03/16 02:29:10;;;;;;;64.63;25.50;;;;;;;7.32;100.00;99276.19;5071576;28;20589;-52
2022/03/16 02:31:37;;;;;;;44.87;25.03;;;;;;;7.36;100.00;99275.81;5073181;28;20208;-50
2022/03/16 02:34:04;;;;;;;81.03;26.77;;;;;;;7.36;100.00;99282.81;5072562;28;20184;-52
2022/03/16 02:36:31;;;;;;;84.63;27.50;;;;;;;7.12;100.00;99275.88;5073021;28;20238;-52
2022/03/16 02:38:58;;;;;;;47.97;25.93;;;;;;;7.12;100.00;99282.81;5073028;28;20200;-49
2022/03/16 02:41:26;;;;;;;48.17;26.93;;;;;;;7.16;100.00;99277.31;5072928;28;20214;-51
2022/03/16 02:43:52;;;;;;;63.57;29.47;;;;;;;7.05;100.00;99282.44;5072525;28;20210;-50
2022/03/16 02:46:19;;;;;;;60.77;28.70;;;;;;;7.01;100.00;99281.81;5072854;28;20191;-50
2022/03/16 02:48:46;;;;;;;74.53;27.90;;;;;;;6.98;100.00;99278.66;5061638;28;20214;-51
2022/03/16 02:51:13;;;;;;;80.73;27.27;;;;;;;6.99;100.00;99290.69;5063383;28;20205;-52
2022/03/16 02:53:40;;;;;;;72.93;27.80;;;;;;;6.96;100.00;99291.72;5072113;28;20285;-51
2022/03/16 02:56:07;;;;;;;75.57;27.53;;;;;;;6.99;100.00;99288.91;5070932;28;20196;-51
2022/03/16 02:58:36;;;;;;;56.60;29.47;;;;;;;6.96;100.00;99293.50;5072681;28;20189;-51
2022/03/16 03:01:04;;;;;;;92.20;29.27;;;;;;;6.96;100.00;99290.91;5072483;28;20208;-53
2022/03/16 03:03:31;;;;;;;51.17;27.67;;;;;;;7.01;100.00;99288.81;5072394;28;20233;-52
2022/03/16 03:05:57;;;;;;;55.13;28.70;;;;;;;6.98;100.00;99295.03;5072044;28;20209;-52
2022/03/16 03:08:24;;;;;;;53.63;27.77;;;;;;;6.98;100.00;99287.25;5072605;28;20221;-53
2022/03/16 03:10:51;;;;;;;57.20;29.30;;;;;;;7.00;100.00;99290.56;5072438;28;20208;-51
2022/03/16 03:13:18;;;;;;;53.63;29.53;;;;;;;7.00;100.00;99297.53;5072297;28;20193;-51
2022/03/16 03:15:46;;;;;;;53.50;28.80;;;;;;;7.01;100.00;99301.78;5072111;28;20191;-50
2022/03/16 03:18:13;;;;;;;55.17;29.57;;;;;;;7.02;100.00;99296.47;5072296;28;20363;-51
2022/03/16 03:20:39;;;;;;;66.40;30.03;;;;;;;7.04;100.00;99298.97;5072349;28;20209;-53
2022/03/16 03:23:06;;;;;;;57.90;31.20;;;;;;;7.02;100.00;99299.06;5072343;28;20645;-52
2022/03/16 03:25:33;;;;;;;60.60;30.93;;;;;;;7.02;100.00;99306.03;5071927;28;20730;-52
2022/03/16 03:28:00;;;;;;;110.57;34.57;;;;;;;6.99;100.00;99307.06;5072133;28;20212;-52
2022/03/16 03:30:27;;;;;;;57.53;29.93;;;;;;;7.00;100.00;99307.91;5072030;28;20286;-50
2022/03/16 03:32:56;;;;;;;65.40;30.50;;;;;;;7.04;100.00;99309.34;5071690;28;20187;-51
2022/03/16 03:35:23;;;;;;;69.80;32.27;;;;;;;7.02;100.00;99306.84;5071623;28;20726;-52
2022/03/16 03:37:51;;;;;;;65.67;31.83;;;;;;;6.96;100.00;99302.09;5071950;28;20235;-53
2022/03/16 03:40:17;;;;;;;62.87;32.40;;;;;;;6.89;100.00;99311.28;5071945;28;20212;-49
2022/03/16 03:42:44;;;;;;;60.67;31.73;;;;;;;6.92;100.00;99303.25;5071630;28;20189;-49
2022/03/16 03:45:11;;;;;;;59.63;32.40;;;;;;;6.88;100.00;99305.25;5071024;28;20184;-51
2022/03/16 03:47:38;;;;;;;60.97;32.30;;;;;;;6.89;100.00;99304.31;5071457;28;20651;-48
2022/03/16 03:50:07;;;;;;;63.10;33.30;;;;;;;6.82;100.00;99297.91;5071689;28;20206;-48
2022/03/16 03:52:34;;;;;;;77.77;33.97;;;;;;;6.79;100.00;99305.91;5071560;28;20184;-48
2022/03/16 03:55:00;;;;;;;96.83;34.87;;;;;;;6.74;100.00;99316.63;5071135;28;20194;-53
2022/03/16 03:57:27;;;;;;;110.90;35.93;;;;;;;6.74;100.00;99314.03;5071497;28;20184;-49
2022/03/16 03:59:54;;;;;;;75.80;32.70;;;;;;;6.79;100.00;99318.91;5071439;28;20196;-50
2022/03/16 04:02:21;;;;;;;108.27;34.00;;;;;;;6.79;100.00;99318.91;5071149;28;20702;-48
2022/03/16 04:04:48;;;;;;;61.63;32.87;;;;;;;6.78;100.00;99325.03;5071265;28;20197;-50
2022/03/16 04:07:15;;;;;;;66.93;33.53;;;;;;;6.83;100.00;99327.31;5071415;28;20188;-52
2022/03/16 04:09:42;;;;;;;71.67;34.57;;;;;;;6.79;100.00;99321.50;5071409;28;20186;-52
2022/03/16 04:12:10;;;;;;;65.63;33.30;;;;;;;6.83;100.00;99327.31;5071212;28;20186;-50
2022/03/16 04:14:37;;;;;;;103.10;34.73;;;;;;;6.77;100.00;99324.22;5070829;28;20187;-52
2022/03/16 04:17:04;;;;;;;68.83;33.47;;;;;;;6.79;100.00;99322.34;5071392;28;20272;-50
2022/03/16 04:19:31;;;;;;;77.30;35.50;;;;;;;6.78;100.00;99327.63;5071236;28;20184;-52
2022/03/16 04:21:57;;;;;;;172.03;36.37;;;;;;;6.70;100.00;99322.13;5070783;28;20204;-52
2022/03/16 04:24:25;;;;;;;99.33;36.27;;;;;;;6.63;100.00;99317.38;5070667;28;20183;-50
2022/03/16 04:26:53;;;;;;;139.60;37.53;;;;;;;6.59;100.00;99321.13;5070943;28;20180;-51
2022/03/16 04:29:20;;;;;;;69.80;34.93;;;;;;;6.59;100.00;99323.72;5070798;28;20226;-50
2022/03/16 04:31:46;;;;;;;68.10;35.03;;;;;;;6.63;100.00;99319.97;5069483;28;20583;-52
2022/03/16 04:34:13;;;;;;;157.30;36.77;;;;;;;6.56;100.00;99325.72;5070737;28;20186;-53
2022/03/16 04:36:40;;;;;;;137.10;39.00;;;;;;;6.51;100.00;99323.44;5070969;28;20183;-50
2022/03/16 04:39:07;;;;;;;78.50;36.43;;;;;;;6.55;100.00;99311.09;5070953;28;20203;-52
2022/03/16 04:41:35;;;;;;;78.27;37.40;;;;;;;6.57;100.00;99317.81;5070567;28;20220;-52
2022/03/16 04:44:01;;;;;;;84.83;37.03;;;;;;;6.59;100.00;99308.16;5070205;28;20197;-53
2022/03/16 04:46:28;;;;;;;79.90;36.00;;;;;;;6.62;100.00;99313.13;5070716;28;20195;-52
2022/03/16 04:48:55;;;;;;;73.17;36.63;;;;;;;6.63;100.00;99307.00;5070640;28;20252;-53
2022/03/16 04:51:22;;;;;;;96.37;36.30;;;;;;;6.63;100.00;99308.78;5070615;28;20252;-54
2022/03/16 04:53:49;;;;;;;79.10;36.47;;;;;;;6.63;100.00;99303.59;5070392;28;20552;-51
2022/03/16 04:56:15;;;;;;;78.63;35.53;;;;;;;6.68;100.00;99305.84;5070063;28;20184;-50
2022/03/16 04:58:44;;;;;;;119.90;37.70;;;;;;;6.65;100.00;99299.94;5069708;28;20236;-50
2022/03/16 05:01:11;;;;;;;179.00;38.17;;;;;;;6.57;100.00;99301.44;5070558;28;20242;-50
2022/03/16 05:03:37;;;;;;;107.00;35.70;;;;;;;6.59;100.00;99299.56;5070144;28;20254;-49
2022/03/16 05:06:04;;;;;;;91.47;37.30;;;;;;;6.56;100.00;99310.16;5069964;28;20185;-49
2022/03/16 05:08:35;;;;;;;70.77;35.40;;;;;;;6.54;100.00;99302.47;5070237;28;20206;-52
2022/03/16 05:11:02;;;;;;;116.23;39.13;;;;;;;6.55;100.00;99305.91;5069080;28;20305;-52
2022/03/16 05:13:29;;;;;;;80.63;34.60;;;;;;;6.56;100.00;99303.19;5070134;28;20188;-52
2022/03/16 05:15:57;;;;;;;91.53;34.60;;;;;;;6.56;100.00;99313.56;5070049;28;20192;-52
2022/03/16 05:18:25;;;;;;;71.17;34.70;;;;;;;6.56;100.00;99310.97;5070112;28;20190;-48
2022/03/16 05:20:52;;;;;;;65.70;32.60;;;;;;;6.56;100.00;99310.16;5070388;28;20225;-50
2022/03/16 05:23:19;;;;;;;60.00;32.20;;;;;;;6.60;100.00;99316.78;5070050;28;20188;-50
2022/03/16 05:25:46;;;;;;;57.43;30.80;;;;;;;6.65;100.00;99317.28;5070100;28;20183;-52
2022/03/16 05:28:13;;;;;;;210.30;38.50;;;;;;;6.63;100.00;99322.56;5070352;28;20199;-52
2022/03/16 05:30:40;;;;;;;92.67;36.47;;;;;;;6.57;100.00;99323.00;5068731;28;20684;-52
2022/03/16 05:33:08;;;;;;;351.07;44.10;;;;;;;6.58;100.00;99329.03;5069922;28;20184;-52
2022/03/16 05:35:35;;;;;;;455.23;45.93;;;;;;;6.53;100.00;99325.94;5069734;28;20192;-50
2022/03/16 05:38:02;;;;;;;100.67;37.27;;;;;;;6.50;100.00;99333.00;5069841;28;20608;-51
2022/03/16 05:40:29;;;;;;;74.73;35.20;;;;;;;6.51;100.00;99336.41;5070178;28;20264;-51
2022/03/16 05:42:56;;;;;;;248.87;39.80;;;;;;;6.47;100.00;99337.56;5070091;28;20199;-48
2022/03/16 05:45:23;;;;;;;143.80;39.17;;;;;;;6.41;100.00;99335.38;5069535;28;20187;-51
2022/03/16 05:47:50;;;;;;;86.97;36.83;;;;;;;6.45;100.00;99329.88;5070057;28;20199;-52
2022/03/16 05:50:19;;;;;;;118.87;39.03;;;;;;;6.41;100.00;99333.63;5069571;28;20688;-52
2022/03/16 05:52:46;;;;;;;103.77;37.93;;;;;;;6.44;100.00;99336.00;5069569;28;20199;-49
2022/03/16 05:55:13;;;;;;;101.47;39.43;;;;;;;6.48;100.00;99331.44;5068329;28;20205;-49
2022/03/16 05:57:43;;;;;;;71.97;35.53;;;;;;;6.55;100.00;99324.88;5069869;28;20217;-50
2022/03/16 06:00:14;;;;;;;320.73;39.50;;;;;;;6.48;100.00;99324.50;5069813;28;20225;-49
2022/03/16 06:02:42;;;;;;;167.53;41.73;;;;;;;6.49;100.00;99326.16;5069750;28;20189;-49
2022/03/16 06:05:09;;;;;;;170.47;37.33;;;;;;;6.51;100.00;99323.44;5069464;28;20637;-49
2022/03/16 06:07:38;;;;;;;186.60;38.37;;;;;;;6.52;100.00;99327.69;5069729;28;20197;-49
2022/03/16 06:10:06;;;;;;;159.33;39.53;;;;;;;6.57;100.00;99333.38;5072722;28;20243;-50
2022/03/16 06:12:33;;;;;;;89.80;38.23;;;;;;;6.65;100.00;99335.44;5073341;28;20194;-49
2022/03/16 06:14:59;;;;;;;77.63;37.83;;;;;;;6.73;100.00;99340.94;5068686;28;20196;-50
2022/03/16 06:17:26;;;;;;;77.27;36.17;;;;;;;6.75;100.00;99344.25;5072052;28;20231;-49
2022/03/16 06:19:53;;;;;;;87.30;37.63;;;;;;;6.82;100.00;99342.03;5065781;28;20187;-52
2022/03/16 06:22:21;;;;;;;115.83;64.17;;;;;;;6.87;100.00;99346.91;5072888;28;20186;-50
2022/03/16 06:24:49;;;;;;;122.27;43.90;;;;;;;6.87;100.00;99342.53;5072940;28;20246;-50
2022/03/16 06:27:16;;;;;;;92.17;36.13;;;;;;;6.96;100.00;99354.00;5073389;28;20185;-49
2022/03/16 06:29:42;;;;;;;78.63;37.87;;;;;;;7.02;100.00;99348.38;5073086;28;20215;-52
2022/03/16 06:32:09;;;;;;;73.40;36.53;;;;;;;7.10;100.00;99358.22;5071705;28;20200;-49
2022/03/16 06:34:36;;;;;;;82.37;34.80;;;;;;;7.11;100.00;99359.03;5073041;28;20199;-51
2022/03/16 06:37:03;;;;;;;66.47;34.63;;;;;;;7.18;100.00;99357.66;5073176;28;20185;-52
2022/03/16 06:39:30;;;;;;;72.17;34.60;;;;;;;7.22;100.00;99364.28;5072946;28;20192;-51
2022/03/16 06:41:58;;;;;;;67.03;32.37;;;;;;;7.29;100.00;99359.50;5072809;28;20680;-51
2022/03/16 06:44:25;;;;;;;90.47;33.93;;;;;;;7.22;100.00;99361.69;5072444;28;20667;-52
2022/03/16 06:46:52;;;;;;;66.57;33.80;;;;;;;7.34;100.00;99371.19;5073000;28;20188;-52
2022/03/16 06:49:19;;;;;;;70.63;34.70;;;;;;;7.35;100.00;99372.84;5072841;28;20699;-50
2022/03/16 06:51:46;;;;;;;68.87;33.73;;;;;;;7.30;100.00;99374.97;5072882;28;20200;-51
2022/03/16 06:54:12;;;;;;;66.97;33.57;;;;;;;7.34;100.00;99388.56;5072209;28;20211;-49
2022/03/16 06:56:39;;;;;;;60.97;31.23;;;;;;;7.37;100.00;99388.34;5072573;28;20206;-50
2022/03/16 06:59:07;;;;;;;61.93;31.33;;;;;;;7.39;100.00;99391.66;5072515;28;20180;-50
2022/03/16 07:01:34;;;;;;;61.13;31.03;;;;;;;7.39;100.00;99397.66;5072705;28;20203;-55
2022/03/16 07:04:01;;;;;;;70.40;31.27;;;;;;;7.42;100.00;99398.38;5072166;28;20190;-54
2022/03/16 07:06:28;;;;;;;152.73;34.30;;;;;;;7.38;100.00;99401.19;5072392;28;20190;-55
2022/03/16 07:08:55;;;;;;;70.43;31.60;;;;;;;7.45;100.00;99390.38;5072454;28;20243;-55
2022/03/16 07:11:22;;;;;;;68.80;33.53;;;;;;;7.47;100.00;99396.28;5072570;28;20757;-56
2022/03/16 07:16:32;;;;;;;68.37;34.23;;;;;;;7.53;100.00;99396.66;5072160;28;20277;-55
2022/03/16 07:18:59;;;;;;;65.93;33.60;;;;;;;7.66;100.00;99404.41;5072320;28;20272;-56
2022/03/16 07:21:26;;;;;;;67.47;31.63;;;;;;;7.68;100.00;99409.47;5071327;28;20755;-55
2022/03/16 07:23:53;;;;;;;66.87;33.17;;;;;;;7.58;100.00;99409.31;5071784;28;20645;-56
2022/03/16 07:26:20;;;;;;;67.10;32.77;;;;;;;7.58;100.00;99411.06;5071900;28;20185;-55
2022/03/16 07:28:47;;;;;;;63.57;31.70;;;;;;;7.52;100.00;99407.16;5071888;28;20207;-55
2022/03/16 07:31:14;;;;;;;70.27;30.37;;;;;;;7.68;100.00;99412.06;5072344;28;20759;-56
2022/03/16 07:33:42;;;;;;;60.43;29.10;;;;;;;7.63;100.00;99415.00;5071479;28;20184;-56
2022/03/16 07:36:09;;;;;;;113.23;29.47;;;;;;;7.56;100.00;99419.00;5071481;28;20567;-56
2022/03/16 07:38:36;;;;;;;65.60;27.80;;;;;;;7.53;100.00;99420.03;5071750;28;20183;-56
2022/03/16 07:41:04;;;;;;;53.33;28.47;;;;;;;7.61;100.00;99418.66;5071763;28;20302;-55
2022/03/16 07:43:31;;;;;;;68.07;27.70;;;;;;;7.61;100.00;99416.03;5071629;28;20194;-55
2022/03/16 07:45:59;;;;;;;56.47;27.43;;;;;;;7.66;100.00;99416.53;5071354;28;20530;-55
2022/03/16 07:48:26;;;;;;;113.03;27.13;;;;;;;7.54;100.00;99418.28;5070318;28;20203;-55
2022/03/16 07:50:54;;;;;;;80.33;27.93;;;;;;;7.55;100.00;99417.34;5071120;28;20214;-55
2022/03/16 07:53:21;;;;;;;62.83;26.13;;;;;;;7.54;100.00;99413.09;5070698;28;20262;-56
2022/03/16 07:55:50;;;;;;;83.50;24.50;;;;;;;7.62;100.00;99412.50;5070156;28;20197;-56
2022/03/16 07:58:17;;;;;;;55.80;25.43;;;;;;;7.56;100.00;99416.41;5070305;28;20191;-55
2022/03/16 08:00:44;;;;;;;72.03;26.40;;;;;;;7.74;100.00;99413.41;5071473;28;20286;-55
2022/03/16 08:03:12;;;;;;;50.73;25.43;;;;;;;7.75;100.00;99410.66;5071254;28;20227;-55
2022/03/16 08:05:39;;;;;;;54.70;25.30;;;;;;;7.87;100.00;99414.16;5069638;28;20696;-55
2022/03/16 08:08:07;;;;;;;50.13;26.13;;;;;;;7.97;100.00;99411.69;5071521;28;20184;-56
2022/03/16 08:10:34;;;;;;;43.47;24.33;;;;;;;8.02;100.00;99411.31;5071304;28;20260;-55
2022/03/16 08:13:01;;;;;;;57.67;25.03;;;;;;;8.05;100.00;99406.72;5069833;28;20199;-56
2022/03/16 08:15:28;;;;;;;49.53;24.07;;;;;;;8.18;100.00;99405.81;5070738;28;20185;-56
2022/03/16 08:17:54;;;;;;;39.60;22.90;;;;;;;8.24;100.00;99389.75;5071146;28;20238;-56
2022/03/16 08:20:21;;;;;;;40.63;23.80;;;;;;;8.28;100.00;99383.38;5070823;28;20294;-55
2022/03/16 08:22:51;;;;;;;54.97;24.17;;;;;;;8.40;100.00;99384.19;5066556;28;20251;-55
2022/03/16 08:25:19;;;;;;;44.90;23.20;;;;;;;8.47;100.00;99385.38;5065430;28;20188;-55
2022/03/16 08:27:45;;;;;;;52.67;25.17;;;;;;;8.44;100.00;99383.00;5064653;28;20197;-55
2022/03/16 08:30:13;;;;;;;42.97;24.17;;;;;;;8.53;100.00;99386.69;5069339;28;20680;-55
2022/03/16 08:32:41;;;;;;;44.97;24.53;;;;;;;8.68;100.00;99380.28;5069379;28;20271;-56
2022/03/16 08:35:09;;;;;;;36.97;22.47;;;;;;;8.89;100.00;99383.94;5070582;28;20188;-55
2022/03/16 08:37:37;;;;;;;39.77;23.63;;;;;;;8.91;99.43;99379.44;5070981;28;20182;-56
2022/03/16 08:40:04;;;;;;;38.80;25.07;;;;;;;9.08;99.38;99386.72;5070859;28;20627;-56
2022/03/16 08:42:32;;;;;;;45.73;23.80;;;;;;;8.89;96.73;99386.56;5070652;28;20227;-56
2022/03/16 08:45:01;;;;;;;45.23;24.07;;;;;;;8.98;98.59;99378.84;5070530;28;20192;-55
2022/03/16 08:47:28;;;;;;;38.90;23.43;;;;;;;9.19;98.29;99388.50;5070766;28;20253;-56
2022/03/16 08:49:55;;;;;;;43.30;25.10;;;;;;;9.20;97.02;99394.50;5070742;28;20385;-55
2022/03/16 08:52:22;;;;;;;46.87;25.53;;;;;;;9.23;97.16;99395.13;5070585;28;20553;-56
2022/03/16 08:54:50;;;;;;;58.77;26.47;;;;;;;9.19;95.89;99396.31;5070367;28;20188;-56
2022/03/16 08:57:17;;;;;;;55.30;26.13;;;;;;;9.18;96.03;99410.28;5070618;28;20188;-56
2022/03/16 08:59:45;;;;;;;57.07;25.97;;;;;;;9.05;96.46;99402.59;5070492;28;20182;-56
2022/03/16 09:02:12;;;;;;;48.07;26.90;;;;;;;8.96;95.93;99393.75;5070458;28;20189;-55
2022/03/16 09:04:39;;;;;;;51.87;28.17;;;;;;;9.16;97.23;99401.75;5070032;28;20271;-56
2022/03/16 09:07:06;;;;;;;50.00;27.70;;;;;;;9.20;96.88;99400.56;5070711;28;20208;-56
2022/03/16 09:09:33;;;;;;;53.00;28.13;;;;;;;9.11;95.68;99398.69;5070527;28;20197;-55
2022/03/16 09:12:00;;;;;;;52.97;28.07;;;;;;;9.05;96.88;99393.97;5067123;28;20251;-56
2022/03/16 09:14:27;;;;;;;55.20;28.33;;;;;;;9.13;97.99;99389.78;5067896;28;20272;-56
2022/03/16 09:16:56;;;;;;;72.53;30.40;;;;;;;9.05;97.54;99381.75;5070355;28;20680;-56
2022/03/16 09:19:22;;;;;;;58.23;28.73;;;;;;;9.05;96.22;99384.38;5070106;28;20181;-55
2022/03/16 09:21:50;;;;;;;63.83;31.57;;;;;;;9.06;98.32;99380.81;5070070;28;20220;-56
2022/03/16 09:24:18;;;;;;;63.10;31.30;;;;;;;9.23;98.40;99378.63;5064619;28;20604;-56
2022/03/16 09:26:45;;;;;;;59.67;30.27;;;;;;;9.32;97.89;99367.47;5069918;28;20658;-56
2022/03/16 09:29:13;;;;;;;61.87;30.83;;;;;;;9.47;96.68;99373.25;5069950;28;20216;-56
2022/03/16 09:31:42;;;;;;;58.83;31.43;;;;;;;9.73;96.57;99373.69;5069852;28;20216;-55
2022/03/16 09:34:10;;;;;;;60.60;30.70;;;;;;;9.87;95.05;99362.09;5065195;28;20194;-55
2022/03/16 09:36:38;;;;;;;62.97;31.80;;;;;;;9.79;92.53;99361.91;5067376;28;20188;-55
2022/03/16 09:39:05;;;;;;;60.33;31.13;;;;;;;10.01;92.78;99367.94;5069925;28;20276;-56
2022/03/16 09:41:32;;;;;;;58.00;30.97;;;;;;;9.88;92.26;99368.97;5069689;28;20218;-55
2022/03/16 09:44:00;;;;;;;54.90;29.77;;;;;;;9.98;93.73;99363.00;5070750;28;20590;-56
2022/03/16 09:46:31;;;;;;;56.43;30.10;;;;;;;10.08;92.93;99366.47;5064651;28;20187;-55
2022/03/16 09:48:58;;;;;;;60.17;32.07;;;;;;;10.29;91.82;99363.00;5062703;28;20193;-55
2022/03/16 09:51:26;;;;;;;58.03;29.57;;;;;;;10.08;90.91;99361.25;5063883;28;20210;-55
2022/03/16 09:53:54;;;;;;;54.47;28.53;;;;;;;9.95;93.77;99356.28;5062529;28;20185;-55
2022/03/16 09:56:21;;;;;;;61.70;29.03;;;;;;;10.15;90.22;99358.94;5061795;28;20189;-55
2022/03/16 09:58:49;;;;;;;60.33;28.50;;;;;;;9.97;90.42;99356.97;5063891;28;20179;-55
2022/03/16 10:01:15;;;;;;;52.83;28.70;;;;;;;9.92;92.25;99358.28;5061249;28;20250;-53
2022/03/16 10:03:48;;;;;;;56.47;29.43;;;;;;;9.91;91.63;99360.09;5066143;28;20198;-55
2022/03/16 10:06:16;;;;;;;54.70;30.03;;;;;;;9.78;94.33;99364.66;5062309;28;20200;-55
2022/03/16 10:13:13;;;;;;;55.87;28.93;;;;;;;9.77;94.71;99358.59;5062095;28;20693;-55
2022/03/16 10:14:18;;;;;;;55.13;28.90;;;;;;;9.56;94.04;99354.22;5062325;28;20824;-55
2022/03/16 10:19:49;;;;;;;52.87;27.93;;;;;;;9.88;94.14;99353.31;5053780;28;20181;-56
2022/03/16 10:22:22;;;;;;;53.70;27.50;;;;;;;9.98;90.50;99358.63;5057211;28;20219;-56
2022/03/16 10:24:54;;;;;;;53.63;29.37;;;;;;;9.77;91.85;99356.00;5063883;28;20196;-56
2022/03/16 10:27:22;;;;;;;57.00;29.53;;;;;;;9.90;91.39;99361.03;5063392;28;20205;-56
2022/03/16 10:29:50;;;;;;;51.43;27.00;;;;;;;9.72;93.62;99364.22;5061179;28;20214;-55
2022/03/16 10:32:22;;;;;;;53.63;30.40;;;;;;;9.45;94.57;99369.94;5062271;28;20183;-55
2022/03/16 10:34:50;;;;;;;58.50;34.58;;;;;;;9.39;95.76;99368.63;5059699;28;20662;-55
2022/03/16 10:37:21;;;;;;;55.90;30.10;;;;;;;9.14;97.31;99370.59;5062172;28;20182;-56
2022/03/16 10:39:53;;;;;;;56.30;29.07;;;;;;;9.22;97.53;99371.78;5061680;28;20712;-57
2022/03/16 10:47:58;;;;;;;52.67;28.00;;;;;;;9.32;97.52;99362.25;5053280;28;20181;-56
2022/03/16 10:50:25;;;;;;;47.70;26.30;;;;;;;9.50;96.81;99353.91;5067372;28;20221;-56
2022/03/16 10:52:53;;;;;;;53.57;27.93;;;;;;;9.70;95.33;99355.69;5072988;28;20189;-56
2022/03/16 10:55:22;;;;;;;52.17;29.93;;;;;;;9.85;94.10;99360.59;5071423;28;20189;-57
2022/03/16 10:57:50;;;;;;;58.27;27.93;;;;;;;10.15;93.00;99358.94;5073190;28;20190;-56
2022/03/16 11:00:19;;;;;;;54.43;28.50;;;;;;;10.27;90.13;99349.28;5057276;28;20268;-57
2022/03/16 11:02:46;;;;;;;53.50;29.03;;;;;;;10.40;90.16;99360.34;5071528;28;20182;-57
2022/03/16 11:05:18;;;;;;;55.57;29.87;;;;;;;10.50;89.02;99364.78;5067657;28;20655;-57
2022/03/16 11:07:47;;;;;;;51.23;28.90;;;;;;;10.33;88.12;99357.38;5072352;28;20246;-56
2022/03/16 11:10:14;;;;;;;53.53;28.87;;;;;;;10.05;90.41;99348.47;5072757;28;20214;-57
2022/03/16 11:15:28;;;;;;;54.47;28.83;;;;;;;10.07;90.26;99336.13;5072226;28;20636;-57
2022/03/16 11:17:55;;;;;;;56.30;31.03;;;;;;;9.90;91.56;99340.19;5072710;28;20189;-56
2022/03/16 11:20:22;;;;;;;55.27;30.13;;;;;;;10.14;91.93;99333.81;5066189;28;20211;-56
2022/03/16 11:25:59;;;;;;;56.47;30.53;;;;;;;10.46;92.85;99330.28;5071481;28;20182;-57
2022/03/16 11:28:47;;;;;;;55.03;30.17;;;;;;;10.67;88.85;99343.22;5064624;28;20206;-57
2022/03/16 11:31:14;;;;;;;55.37;30.80;;;;;;;10.67;87.88;99338.00;5072177;28;20224;-56
2022/03/16 11:33:51;;;;;;;55.10;33.22;;;;;;;10.65;87.53;99336.50;5071778;28;20522;-55
2022/03/16 11:36:32;;;;;;;52.23;29.87;;;;;;;10.53;86.84;99346.25;5059350;28;20227;-57
2022/03/16 11:39:02;;;;;;;52.93;30.13;;;;;;;10.68;88.56;99349.28;5064194;28;20200;-57